Logs | Dick Palmer, St. Charles, MO, USA - EM48qr
Paging Controls
Log ID Date UTC KHz ID Location S/P ITU Region GSQ LSB USB Sec. Fmt. Power KM Miles Deg
2496678 2024-05-27 1032 305 RO 'Topan' Roswell NM USA na DM73si 400 1378 856 248
2496677 2024-05-25 2158 305 OI 'Tommi' South Sioux City NE USA na EN12sl 25 645 401 312
2496675 2024-05-25 2155 293 FBY Fairbury NE USA na EN10ke 50 581 361 288
2496674 2024-05-25 2154 277 OT 'Wondd' Worthington MN USA na EN23go 25 676 420 324
2496673 2024-05-25 2151 275 DE 'Elwin' Decatur IL USA na EM59ms 184 115 50
2496672 2024-05-25 2151 274 RG Red Wing MN USA na EN34qo 25 674 419 346
2496671 2024-05-25 0758 273 FK 'Airbe' Fort Campbell (Hopkinsville) KY USA na EM66hr 25 362 225 126
2496676 2024-05-25 0122 293 UI Quincy IL USA na EM49iv 25 142 88 336
2496670 2024-05-25 0115 272 OLY 'Olney' Olney-Noble IL USA na EM58vr 25 210 130 89
2492516 2024-04-29 1056 404 MOG Montague CA USA na CN81sr 25 2707 1682 287
2492502 2024-04-28 2236 341 FO 'Barro' Fort Dodge IA USA na EN22um 25 523 325 324
2492509 2024-04-27 0842 368 ROQ Ruston LA USA na EM32qo 25 705 438 195
2492510 2024-04-27 0840 368 SX Skookum (Cranbrook) BC CAN na DN29cw 500 2341 1454 310
2492508 2024-04-27 0837 365 PAL Palma EQA sa FI07cx 1000 4665 2898 163
2492504 2024-04-27 0829 347 SBX Shelby MT USA na DN48bm 50 2017 1253 309
2492503 2024-04-27 0825 345 GF 'Hiser' Grand Forks ND USA na EN17ju 1145 711 334
2492496 2024-04-27 0808 280 GYZ 'Camp Guernsey' Guernsey WY USA na DN72pf 50 1251 777 292
2492484 2024-04-27 0755 209 ITR 'Kit Carson' Burlington CO USA na DM89uf 25 1009 627 276
2492512 2024-04-27 0748 391 DDP San Juan / Dorado / Luiz Munoz Marin Intl PR PTR ca FK68tl 2000 3247 2017 127
2492511 2024-04-27 0745 379 BRA 'Broad River' Asheville NC USA na EM85sg 100 820 510 115
2492507 2024-04-27 0736 363 RNB 'Rainbow' Millville NJ USA na FM29kk 50 1338 832 81
2492506 2024-04-27 0732 359 LYZ 'Willis' Bainbridge GA USA na EM70rx 1024 636 145
2492505 2024-04-27 0728 351 MSQ Culpeper VA USA na FM18bk 25 1108 688 87
2492501 2024-04-27 0720 341 EI 'Garfy' Enid OK USA na EM16cg 688 428 248
2492500 2024-04-27 0714 338 YPX Puvirnituq QC CAN na FP10ib 500 2549 1584 17
2492499 2024-04-27 0712 338 RYN 'Ryan' Tucson AZ USA na DM42kd 400 1991 1237 254
2492498 2024-04-27 0708 329 YEK Arviat NU CAN na EP21xc 500 2499 1553 355
2492497 2024-04-27 0705 305 RO 'Topan' Roswell NM USA na DM73si 400 1378 856 248
2492495 2024-04-27 0656 278 EOE 'Enoree' Newberry SC USA na EM94eh 25 942 585 118
2492493 2024-04-27 0649 245 HU 'Yinno' Terre Haute IN USA na EM69hj 290 180 74
2492492 2024-04-27 0649 245 FS 'Rokky' Sioux Falls SD USA na EN13ol 100 738 459 317
2492491 2024-04-27 0646 236 BW 'Noora' Bowling Green KY USA na EM36fv 327 203 232
2492490 2024-04-27 0643 227 TNZ 'Lawrence Co.' Walnut Ridge AR USA na EM46me 25 284 177 186
2492488 2024-04-27 0641 224 QM Moncton NB CAN na FN76rc 400 2280 1417 60
2492487 2024-04-27 0635 212 YGX Gillam MB CAN na EO26pi 1983 1232 352
2492485 2024-04-27 0635 211 AN 'Bogga' Anniston AL USA na EM73am 25 715 444 142
2492483 2024-04-27 0630 200 YAQ Kasabonika ON CAN na EO53qm 50 1652 1026 4
2492522 2024-04-27 0627 420 TU 'Veron' Tupelo MS USA na EM54oe 25 531 330 161
2492521 2024-04-27 0621 410 GG 'Veels' Longview TX USA na EM22ok 794 494 209
2492520 2024-04-27 0617 407 IL 'Airbo' Wilmington OH USA na EM89dl 25 602 374 79
2492519 2024-04-27 0615 407 AQ 'Kooky' Appleton WI USA na EN54tf 25 640 397 16
2492518 2024-04-27 0614 405 8888 William P. Gwinn Airport - Jupiter FL USA na EL96tv 1625 1010 141
2492515 2024-04-27 0612 404 HU 'Saltt' Hutchinson KS USA na EM18ac 25 642 399 266
2492517 2024-04-27 0608 404 XCR 'Ripley' Little Falls MN USA na EN26tb 50 871 541 340
2492513 2024-04-27 0607 400 AHQ Wahoo NE USA na EN11qf 582 361 300
2492514 2024-04-27 0605 400 CI 'Koloe' Sault Ste. Marie MI USA na EN76rh 25 979 608 28
2492489 2024-04-26 1826 227 FZ 'Eaves' St. Louis MO USA na EM48rq 9 5 122
2492486 2024-04-26 1824 212 UC 'Obion' Union City TN USA na EM56mh 25 306 190 150
2492494 2024-04-26 1822 275 DE 'Elwin' Decatur IL USA na EM59ms 184 115 50
2481919 2024-03-12 0749 346 LW 'Bushi' Lewisburg WV USA na EM97ss 894 555 93
2481916 2024-03-12 0744 344 SE Pollk (Selma) AL USA na EM62mg 791 491 154
2481912 2024-03-12 0738 341 HVS Hartsville SC USA na EM94wj 25 1053 654 113
2481910 2024-03-12 0736 341 EI 'Garfy' Enid OK USA na EM16cg 688 428 248
2481900 2024-03-12 0725 335 DR 'Kotti' Del Rio TX USA na DL99mk 1403 871 225
2481893 2024-03-12 0717 332 PH 'Phurn' Port Huron MI USA na EN82qu 814 506 53
2481881 2024-03-12 0708 326 FC Fredericton NB CAN na FN65qw 1600 2119 1317 60
2481877 2024-03-12 0706 317 ZZR 'Trenton (Apt)' Severn ON CAN na FN14eb 50 1234 767 57
2481876 2024-03-12 0705 316 FFC 'Pecat' Peachtree City GA USA na EM73sh 818 508 135
2481873 2024-03-12 0704 311 9Y Pincher Creek AB CAN na DN39am 50 2201 1368 310
2481870 2024-03-12 0703 305 BNE Hewanorra LCA ca FK93mr 100 4025 2501 125
2481869 2024-03-12 0659 302 HO 'Beady' Huron SD USA na EN04tk 25 904 562 317
2481865 2024-03-12 0656 293 TOR Torrington WY USA na DN72wb 25 1200 746 292
2481861 2024-03-12 0647 281 CA Cartwright NL CAN na GO13lr 1000 3032 1884 45
2481853 2024-03-12 0644 275 R1 Thetford Mines QC CAN na FN46ib 25 1778 1105 56
2481852 2024-03-12 0644 275 HIN 'Whitney' Chadron NE USA na DN82kt 25 1145 711 297
2481854 2024-03-12 0642 275 RU 'Rovdy' Salisbury NC USA na EM95sr 959 596 107
2481843 2024-03-11 0740 260 JH 'Brenz' Jackson MS USA na EM42uj 705 438 177
2481840 2024-03-11 0730 251 YCD Nanaimo BC CAN na CN89bd 500 2874 1786 304
2481839 2024-03-11 0724 245 PWF 'Sportys' Batavia OH USA na EM79vb 25 556 346 84
2481838 2024-03-11 0723 245 HU 'Yinno' Terre Haute IN USA na EM69hj 290 180 74
2481837 2024-03-11 0721 242 XC Cranbrook BC CAN na DN29cq 400 2330 1448 309
2481836 2024-03-11 0709 227 GW 'Aubon' De Kalb County, Auburn IN USA na EN71mh 25 561 349 57
2481835 2024-03-11 0706 224 QM Moncton NB CAN na FN76rc 400 2280 1417 60
2481834 2024-03-11 0656 218 YUY Rouyn QC CAN na FN08me 500 1408 875 37
2481833 2024-03-11 0654 212 SJ Saint John NB CAN na FN75cj 1000 2169 1348 62
2481832 2024-03-11 0651 211 AN 'Bogga' Anniston AL USA na EM73am 25 715 444 142
2481831 2024-03-11 0648 209 ITR 'Kit Carson' Burlington CO USA na DM89uf 25 1009 627 276
2481878 2024-03-10 0801 320 YQF Red Deer AB CAN na DO32bd 50 2330 1448 317
2481879 2024-03-10 0800 323 OUK Calhoun GA USA na EM74mj 24 698 434 131
2481923 2024-03-10 0757 349 GW 'Teock' Greenwood MS USA na EM43wo 25 572 355 175
2481924 2024-03-10 0757 350 CP 'Acore' Cahokia / St Louis IL USA na EM48xm 25 56 35 114
2481922 2024-03-10 0756 347 SBX Shelby MT USA na DN48bm 50 2017 1253 309
2481921 2024-03-10 0755 346 YXL Sioux Lookout ON CAN na EO40bc 1000 1269 788 355
2481920 2024-03-10 0754 346 VU 'Aller' Albemarle NC USA na EM95xl 1005 624 107
2481918 2024-03-10 0753 345 GF 'Hiser' Grand Forks ND USA na EN17ju 1145 711 334
2481915 2024-03-10 0750 344 JL 'Lunns' Joplin MO USA na EM27re 384 238 244
2481914 2024-03-10 0749 344 JA 'Dinns' Jacksonville FL USA na EM90cl 400 1221 759 136
2481917 2024-03-10 0749 344 TKH 'Tallulah' Vicksburg LA USA na EM42lf 724 450 183
2481913 2024-03-10 0748 342 ST 'Hussk' St Cloud MN USA na EN35al 25 799 497 340
2481909 2024-03-10 0746 341 DNI Denison TX USA na EM13pt 25 772 480 226
2481911 2024-03-10 0745 341 FO 'Barro' Fort Dodge IA USA na EN22um 25 523 325 324
2481908 2024-03-10 0745 341 CQN 'Daisy' Chattanooga TN USA na EM75kd 50 630 392 127
2481907 2024-03-10 0742 338 YPX Puvirnituq QC CAN na FP10ib 500 2549 1584 17
2481904 2024-03-10 0741 338 RYN 'Ryan' Tucson AZ USA na DM42kd 400 1991 1237 254
2481906 2024-03-10 0740 338 TU 'Oillr' Tulsa OK USA na EM26bc 548 340 239
2481903 2024-03-10 0738 338 HR 'Sebas' Harlingen TX USA na EL16eh 25 1527 949 207
2481902 2024-03-10 0737 337 FF 'Hamre' Fergus Falls MN USA na EN16xf 25 944 587 333
2481901 2024-03-10 0737 336 MA 'Wexford' Cadillac MI USA na EN74ff 743 462 33
2481905 2024-03-10 0737 338 TT 'Stutt' Stuttgart AR USA na EM44fm 25 475 295 190
2481899 2024-03-10 0733 335 BV 'Almnd' Batesville AR USA na EM45cq 25 354 220 197
2481898 2024-03-10 0733 335 BK 'CHRLZ' Brookings SD USA na EN14mi 25 817 508 321
2481897 2024-03-10 0732 334 YER Fort Severn ON CAN na EO65ex 195 1931 1200 5
2481896 2024-03-10 0730 334 LH 'Egrow' Bloomington IL USA na EN50nn 253 157 35
2481891 2024-03-10 0729 332 HK 'Tawba' Hickory NC USA na EM95is 25 889 552 108
2481894 2024-03-10 0729 332 QT Thunder Bay ON CAN na EN58gi 1000 1074 667 4
2481889 2024-03-10 0726 332 DN 'Julip' Danville IL USA na EN60fg 315 196 56
2481892 2024-03-10 0725 332 IC 'Piche' Wichita KS USA na EM17gn 25 611 380 259
2481895 2024-03-10 0725 332 SG 'Depre' Green Bay WI USA na EN54wj 25 663 412 17
2481890 2024-03-10 0724 332 FIS 'Fish Hook' Key West FL USA na EL94cn 400 1781 1107 149
2481888 2024-03-10 0723 331 JV 'Catch' Jeffersonville IN USA na EM78dl 428 266 92
2481886 2024-03-10 0721 329 PMV Plattsmouth NE USA na EN20bw 25 511 317 300
2481885 2024-03-10 0720 329 CH 'Ashly' Charleston SC USA na EM92wx 400 1141 709 120
2481884 2024-03-10 0719 328 YTL Big Trout Lake ON CAN na EO53bt 1000 1678 1043 1
2481883 2024-03-10 0718 326 SU 'Snoop' Saint Louis MO USA na EM48op 25 17 11 237
2481882 2024-03-10 0718 326 MA 'Farly' Midland TX USA na DM81ux 400 1295 805 238
2481880 2024-03-10 0717 326 DC Princeton BC CAN na CN99rl 500 2647 1645 306
2481875 2024-03-10 0709 315 AT 'Bruny' Dayton OH USA na EM79tu 552 343 74
2481874 2024-03-10 0708 314 VTN Valentine NE USA na DN92ru 25 952 591 301
2481871 2024-03-10 0707 305 OI 'Tommi' South Sioux City NE USA na EN12sl 25 645 401 312
2481872 2024-03-10 0707 305 RO 'Topan' Roswell NM USA na DM73si 400 1378 856 248
2481867 2024-03-10 0704 299 HW 'Cubla' Wilmington OH USA na EM89bi 587 365 81
2481868 2024-03-10 0704 300 YIV Island Lake MB CAN na EO23qu 500 1709 1062 351
2481864 2024-03-10 0702 293 FBY Fairbury NE USA na EN10ke 50 581 361 288
2481866 2024-03-10 0702 293 UI Quincy IL USA na EM49iv 25 142 88 336
2481887 2024-03-10 0702 329 YEK Arviat NU CAN na EP21xc 500 2499 1553 355
2481925 2024-03-10 0701 290 QR Regina SK CAN na DO70ri 100 1693 1052 324
2481863 2024-03-10 0657 284 RT Rankin Inlet NU CAN na EP32wt 1000 2680 1665 358
2481862 2024-03-10 0654 284 BT 'Rundi' Baton Rouge LA USA na EM40jn 910 565 183
2481860 2024-03-10 0652 280 GYZ 'Camp Guernsey' Guernsey WY USA na DN72pf 50 1251 777 292
2481858 2024-03-10 0651 278 EOE 'Enoree' Newberry SC USA na EM94eh 25 942 585 118
2481859 2024-03-10 0650 278 GPQ Carrollton GA USA na EM73kn 25 757 470 137
2481857 2024-03-10 0649 278 CEP 'Capitan' Ruidoso NM USA na DM73hl 25 1446 898 250
2481856 2024-03-10 0648 278 AUR 'Sulfy' Sulphur LA USA na EM30ge 25 984 612 196
2481855 2024-03-10 0647 277 OT 'Wondd' Worthington MN USA na EN23go 25 676 420 324
2481851 2024-03-10 0641 275 GUY Guymon OK USA na DM96fq 25 986 613 260
2481850 2024-03-10 0640 275 DE 'Elwin' Decatur IL USA na EM59ms 184 115 50
2481848 2024-03-10 0639 273 FK 'Airbe' Fort Campbell (Hopkinsville) KY USA na EM66hr 25 362 225 126
2481849 2024-03-10 0639 274 RG Red Wing MN USA na EN34qo 25 674 419 346
2481847 2024-03-10 0638 272 RH 'Arsha' Rhinelander WI USA na EN55ep 773 481 5
2481846 2024-03-10 0636 272 OLY 'Olney' Olney-Noble IL USA na EM58vr 25 210 130 89
2481841 2024-03-10 0634 257 JYR York NE USA na EN10ev 25 644 400 294
2481842 2024-03-10 0632 258 ZSJ Sandy Lake ON CAN na EO33hb 500 1608 999 353
2481844 2024-03-10 0631 267 HET Henryetta OK USA na EM15xj 25 607 377 234
2481845 2024-03-10 0629 269 UDE Delta MB CAN na EO00ud 50 1406 874 337
2474834 2024-02-20 1136 393 BR 'Depoo' Brownsville TX USA na EL15fx 1558 968 206
2474833 2024-02-20 1125 385 LN 'Potts' Lincoln NE USA na EN10or 45 572 355 294
2474832 2024-02-20 1122 382 IRS Sturgis MI USA na EN71gt 25 556 346 50
2474831 2024-02-20 1114 371 RYV 'Rock River' Watertown WI USA na EN53pe 25 521 324 17
2474830 2024-02-20 1104 362 MT Manitowac WI USA na EN64de 654 406 20
2474829 2024-02-20 1051 351 AE 'Dudle' Albuquerque NM USA na DM65pf 1478 919 259
2474828 2024-02-20 1048 347 SBX Shelby MT USA na DN48bm 50 2017 1253 309
2474827 2024-02-20 1023 314 VTN Valentine NE USA na DN92ru 25 952 591 301
2474826 2024-02-20 1016 290 QR Regina SK CAN na DO70ri 100 1693 1052 324
2474825 2024-02-20 1010 281 CA Cartwright NL CAN na GO13lr 1000 3032 1884 45
2473544 2024-02-19 0601 271 HXO Huntsboro NC USA na FM06qh 25 1091 678 100
2473543 2024-02-19 0557 269 LOR 'Lowe' Fort Novosel (Ozark) AL USA na EM71di 934 580 149
2473542 2024-02-19 0554 264 JUY 'Judd' Andelusia AL USA na EM61th 25 911 566 153
2473541 2024-02-19 0551 260 JH 'Brenz' Jackson MS USA na EM42uj 705 438 177
2473540 2024-02-19 0549 257 MB 'Olste' Saginaw MI USA na EN73vl 753 468 43
2473539 2024-02-19 0548 257 JYR York NE USA na EN10ev 25 644 400 294
2473538 2024-02-19 0544 254 LLW 'Woodville' Elizabeth City NC USA na FM16ug 50 1292 803 97
2473537 2024-02-19 0542 253 OC 'Nados' Nacogdoches TX USA na EM21pl 25 887 551 205
2473536 2024-02-19 0539 253 DD 'Cobbs' Columbus OH USA na EM89lr 49 662 412 77
2473535 2024-02-19 0534 250 UGS 'University' Athens / Albany OH USA na EM89wg 25 737 458 82
2473534 2024-02-19 0530 242 LKG 'Lindbergh' Americus GA USA na EM72we 25 935 581 139
2473533 2024-02-19 0523 230 BU 'Boutn' Columbus OH USA na EM89jt 649 404 76
2473532 2024-02-19 0518 221 RP 'Wickr' Rice Lake Airport, Carl's Field WI USA na EN45ch 738 459 352
2473531 2024-02-19 0515 221 BO 'Booie' Bristol (Johnston-Kingsport) TN USA na EM86sj 765 475 107
2473530 2024-02-19 0511 220 HUR Person NC USA na FM06lf 25 1058 658 101
2473529 2024-02-19 0508 219 ZRS 'Ajax' Regina SK CAN na DO70pl 1712 1063 324
2473527 2024-02-19 0457 211 AN 'Bogga' Anniston AL USA na EM73am 25 715 444 142
2473528 2024-02-19 0454 212 UC 'Obion' Union City TN USA na EM56mh 25 306 190 150
2473407 2024-02-18 1140 267 HET Henryetta OK USA na EM15xj 25 607 377 234
2473408 2024-02-18 1140 269 PK 'Spida' Park Rapids MN USA na EN26mu 25 970 603 340
2473406 2024-02-18 1138 266 ZHM Hamilton (Binbrook) ON CAN na FN03cd 50 1033 642 58
2473405 2024-02-18 1132 263 GR 'Knobs' Grand Rapids MI USA na EN72hv 640 398 41
2473404 2024-02-18 1127 257 LW Kelowna BC CAN na DO00hb 50 2586 1606 308
2473403 2024-02-18 1114 251 BR 'Larew' Brainerd MN USA na EN26xk 25 901 560 343
2473402 2024-02-18 1111 250 FO Flin Flon MB CAN na DO94dq 1600 1960 1218 338
2473401 2024-02-18 1109 245 PWF 'Sportys' Batavia OH USA na EM79vb 25 556 346 84
2473400 2024-02-18 1108 245 HU 'Yinno' Terre Haute IN USA na EM69hj 290 180 74
2473399 2024-02-18 1107 242 XC Cranbrook BC CAN na DN29cq 400 2330 1448 309
2473398 2024-02-18 1058 233 OKS Oshkosh NE USA na DN81tj 25 1042 647 290
2473396 2024-02-18 1054 227 SQ 'Pnthr' Connersville IN USA na EM79ks 25 487 303 74
2473397 2024-02-18 1052 227 TNZ 'Lawrence Co.' Walnut Ridge AR USA na EM46me 25 284 177 186
2473395 2024-02-18 1050 225 YIK Ivujivik QC CAN na FP12aj 100 2768 1720 13
2473394 2024-02-18 1048 224 QM Moncton NB CAN na FN76rc 400 2280 1417 60
2473393 2024-02-18 1046 224 BH 'Mc Den' Birmingham AL USA na EM63nm 400 670 416 148
2473392 2024-02-18 1044 221 YAS Kangirsuk QC CAN na FP40xa 500 2771 1722 24
2473391 2024-02-18 1041 221 HM Hamilton (Carluke) ON CAN na EN93xc 25 1012 629 57
2473390 2024-02-18 1036 215 YTR Trenton ON CAN na FN14he 25 1258 781 56
2473389 2024-02-18 1033 212 VP 'Sedly' Valparaiso IN USA na EN61nk 439 273 45
2473388 2024-02-18 1031 209 SYS 'Stoystown' Somerset PA USA na FN00nc 25 1020 634 77
2473387 2024-02-18 1030 209 MT 'Chiboo' Chibougamau (Chapais) QC CAN na FN29st 500 1775 1103 40
2473386 2024-02-18 1029 209 ITR 'Kit Carson' Burlington CO USA na DM89uf 25 1009 627 276
2473385 2024-02-18 1027 204 ZQR 'Findlay' Regina SK CAN na DO70rk 20 1700 1056 324
2473384 2024-02-18 1024 200 YAQ Kasabonika ON CAN na EO53qm 50 1652 1026 4
2472567 2024-02-17 0921 397 CIR Cairo IL USA na EM57jb 25 223 139 145
2472566 2024-02-17 0920 395 OS 'Pober' Oshkosh WI USA na EN53ru 596 370 16
2472565 2024-02-17 0919 395 CA 'Harvs' Newton KS USA na EM18id 25 584 363 265
2472564 2024-02-17 0919 394 SP 'Snore' Spencer IA USA na EN23if 635 395 323
2472563 2024-02-17 0916 394 AI 'Video' Anderson IN USA na EN70fb 25 461 287 69
2472562 2024-02-17 0914 392 AGZ Wagner SD USA na EN03ub 25 804 500 309
2472561 2024-02-17 0905 388 MD 'Cabbi' Carbondale / Murphysboro IL USA na EM57ju 157 98 127
2472559 2024-02-17 0904 385 EMR 'Emory' Augusta GA USA na EM93al 400 972 604 124
2472558 2024-02-17 0857 385 DXB De Ridder LA USA na EM30hs 920 571 196
2472560 2024-02-17 0857 385 HO 'Hossy' Hot Springs AR USA na EM34jk 50 530 329 206
2472557 2024-02-17 0856 385 CPZ 'Chaparrosa Ranch' La Pryor TX USA na DL98xv 25 1395 867 221
2472556 2024-02-17 0855 383 CNP Chappell NE USA na DN81sb 25 1041 647 288
2472555 2024-02-17 0850 379 YPQ Peterborough ON CAN na FN04sf 25 1182 734 54
2472572 2024-02-17 0849 379 RUE Russellville AR USA na EM35kg 25 444 276 210
2472553 2024-02-17 0847 379 BRA 'Broad River' Asheville NC USA na EM85sg 100 820 510 115
2472554 2024-02-17 0847 379 UG 'Wauke' Waukegan (Chicago) IL USA na EN62cl 25 481 299 28
2472552 2024-02-17 0846 378 RJ Roberval QC CAN na FN38un 500 1828 1136 47
2472551 2024-02-17 0843 375 LF 'Laffs' Lafayette LA USA na EM40bg 947 589 187
2472550 2024-02-17 0840 374 HY 'Nette' Hays KS USA na EM08js 744 462 273
2472549 2024-02-17 0838 374 EX Rutland (Kelowna) BC CAN na DN09hw 2581 1604 308
2472548 2024-02-17 0836 372 UQN 'Onyun' Vidalia GA USA na EM82uf 25 1044 649 131
2472571 2024-02-17 0835 372 MF 'Manns' Mansfield OH USA na EN80ss 734 456 69
2472547 2024-02-17 0834 371 GW Jarpik Kuujjuarapik QC CAN na FO15cg 500 2073 1288 23
2472546 2024-02-17 0831 369 ZDX Coolidge Saint Johns ATG ca FK97cd 700 3683 2289 122
2472543 2024-02-17 0830 368 SX Skookum (Cranbrook) BC CAN na DN29cw 500 2341 1454 310
2472545 2024-02-17 0829 368 VIQ Neillsville WI USA na EN44rn 25 649 403 0
2472544 2024-02-17 0827 368 TEC 'Tech' Blacksburg VA USA na EM97te 25 914 568 97
2472542 2024-02-17 0826 366 EZM Eastman GA USA na EM82kd 25 998 620 134
2472540 2024-02-17 0824 365 SYZ Shelbyville IL USA na EM59nj 25 168 105 63
2472541 2024-02-17 0822 365 TV 'Gwenn' Traverse City MI USA na EN74gr 30 793 492 31
2472538 2024-02-17 0821 365 JA 'Allen' Jackson MS USA na EM42wj 706 438 176
2472537 2024-02-17 0820 365 AA 'Kenie' Fargo MN USA na EN17oa 100 1049 652 333
2472539 2024-02-17 0819 365 PAL Palma EQA sa FI07cx 1000 4665 2898 163
2472536 2024-02-17 0818 363 RNB 'Rainbow' Millville NJ USA na FM29kk 50 1338 832 81
2472535 2024-02-17 0814 362 SUR Fitzgerald GA USA na EM81io 25 1035 643 137
2472534 2024-02-17 0812 362 CD 'Dawes' Chadron NE USA na DN82js 1150 714 297
2472533 2024-02-17 0811 362 AK Akron OH USA na EN91hb 830 516 68
2472532 2024-02-17 0808 362 6T Foremost AB CAN na DN49gl 41 2037 1266 312
2472531 2024-02-17 0807 361 HB 'Himun' Burlington NC USA na FM05ex 1018 633 104
2472529 2024-02-17 0805 360 GP 'Bayou' Gulfport MS USA na EM50kl 927 576 171
2472530 2024-02-17 0804 360 SW 'Roadd' Warroad MN USA na EN28ju 25 1184 736 343
2472527 2024-02-17 0801 359 GGF Grant NE USA na DN90du 975 606 287
2472528 2024-02-17 0759 359 GYG Grayling MI USA na EN74or 25 824 512 34
2472523 2024-02-17 0757 356 GR 'Famis' Green Bay WI USA na EN54vk 666 414 16
2472526 2024-02-17 0756 356 ZF Yellowknife NT CAN na DP22sj 1000 3084 1916 336
2472525 2024-02-17 0753 356 ODX Ord NE USA na EN01mo 25 776 482 296
2472524 2024-02-17 0750 356 HEU 'Hunter' Schenectady NY USA na FN32au 1473 915 66
2472522 2024-02-17 0744 355 CS 'Fenix' Columbus GA USA na EM72lk 862 536 142
2472521 2024-02-17 0740 353 VV 'Junne' Greensboro GA USA na EM83lp 884 549 127
2472511 2024-02-16 1151 341 HVS Hartsville SC USA na EM94wj 25 1053 654 113
2472512 2024-02-16 1150 342 ST 'Hussk' St Cloud MN USA na EN35al 25 799 497 340
2472520 2024-02-16 1148 351 MSQ Culpeper VA USA na FM18bk 25 1108 688 87
2472513 2024-02-16 1144 344 JA 'Dinns' Jacksonville FL USA na EM90cl 400 1221 759 136
2472518 2024-02-16 1144 346 VU 'Aller' Albemarle NC USA na EM95xl 1005 624 107
2472514 2024-02-16 1142 344 JL 'Lunns' Joplin MO USA na EM27re 384 238 244
2472495 2024-02-16 1140 329 YEK Arviat NU CAN na EP21xc 500 2499 1553 355
2472493 2024-02-16 1137 326 MA 'Farly' Midland TX USA na DM81ux 400 1295 805 238
2472492 2024-02-16 1134 323 OUK Calhoun GA USA na EM74mj 24 698 434 131
2472491 2024-02-16 1133 320 YQF Red Deer AB CAN na DO32bd 50 2330 1448 317
2472490 2024-02-16 1132 317 ZZR 'Trenton (Apt)' Severn ON CAN na FN14eb 50 1234 767 57
2472489 2024-02-16 1130 316 FFC 'Pecat' Peachtree City GA USA na EM73sh 818 508 135
2472488 2024-02-16 1129 315 AT 'Bruny' Dayton OH USA na EM79tu 552 343 74
2472487 2024-02-16 1125 305 RO 'Topan' Roswell NM USA na DM73si 400 1378 856 248
2472486 2024-02-16 1124 305 OI 'Tommi' South Sioux City NE USA na EN12sl 25 645 401 312
2472485 2024-02-16 1119 300 YIV Island Lake MB CAN na EO23qu 500 1709 1062 351
2472484 2024-02-16 1119 299 HW 'Cubla' Wilmington OH USA na EM89bi 587 365 81
2472483 2024-02-16 1116 293 TOR Torrington WY USA na DN72wb 25 1200 746 292
2472482 2024-02-16 1108 284 RT Rankin Inlet NU CAN na EP32wt 1000 2680 1665 358
2472481 2024-02-16 1106 284 BT 'Rundi' Baton Rouge LA USA na EM40jn 910 565 183
2472480 2024-02-16 1059 280 GYZ 'Camp Guernsey' Guernsey WY USA na DN72pf 50 1251 777 292
2472478 2024-02-16 1057 278 CEP 'Capitan' Ruidoso NM USA na DM73hl 25 1446 898 250
2472479 2024-02-16 1056 278 GPQ Carrollton GA USA na EM73kn 25 757 470 137
2472477 2024-02-16 1054 275 R1 Thetford Mines QC CAN na FN46ib 25 1778 1105 56
2472476 2024-02-16 1053 275 HIN 'Whitney' Chadron NE USA na DN82kt 25 1145 711 297
2472496 2024-02-14 1226 330 MF 'Missi' Mc Allen TX USA na EL06ug 1559 969 209
2472519 2024-02-14 1222 349 GW 'Teock' Greenwood MS USA na EM43wo 25 572 355 175
2472517 2024-02-14 1218 345 GF 'Hiser' Grand Forks ND USA na EN17ju 1145 711 334
2472516 2024-02-14 1213 344 TKH 'Tallulah' Vicksburg LA USA na EM42lf 724 450 183
2472515 2024-02-14 1211 344 SE Pollk (Selma) AL USA na EM62mg 791 491 154
2472510 2024-02-14 1208 341 FO 'Barro' Fort Dodge IA USA na EN22um 25 523 325 324
2472509 2024-02-14 1206 341 EI 'Garfy' Enid OK USA na EM16cg 688 428 248
2472508 2024-02-14 1205 341 DNI Denison TX USA na EM13pt 25 772 480 226
2472507 2024-02-14 1203 338 YPX Puvirnituq QC CAN na FP10ib 500 2549 1584 17
2472501 2024-02-14 1202 335 DR 'Kotti' Del Rio TX USA na DL99mk 1403 871 225
2472503 2024-02-14 1200 337 FF 'Hamre' Fergus Falls MN USA na EN16xf 25 944 587 333
2472502 2024-02-14 1200 336 MA 'Wexford' Cadillac MI USA na EN74ff 743 462 33
2472498 2024-02-14 1152 332 HK 'Tawba' Hickory NC USA na EM95is 25 889 552 108
2472499 2024-02-14 1149 332 IC 'Piche' Wichita KS USA na EM17gn 25 611 380 259
2472500 2024-02-14 1149 332 SG 'Depre' Green Bay WI USA na EN54wj 25 663 412 17
2472497 2024-02-14 1148 331 JV 'Catch' Jeffersonville IN USA na EM78dl 428 266 92
2472506 2024-02-14 1147 338 TU 'Oillr' Tulsa OK USA na EM26bc 548 340 239
2472504 2024-02-14 1147 338 HR 'Sebas' Harlingen TX USA na EL16eh 25 1527 949 207
2472505 2024-02-14 1146 338 RYN 'Ryan' Tucson AZ USA na DM42kd 400 1991 1237 254
2472494 2024-02-11 0827 329 CH 'Ashly' Charleston SC USA na EM92wx 400 1141 709 120
2472475 2024-02-11 0818 260 MTH Marathon FL USA na EL94kr 100 1795 1115 147
2472474 2024-02-11 0813 236 BW 'Noora' Bowling Green KY USA na EM36fv 327 203 232
2472473 2024-02-11 0810 233 AZN 'Amazon' St. Joseph MO USA na EM29nv 25 388 241 290
2472569 2024-02-09 0957 419 TX 'Gwnet' Lawrenceville GA USA na EM84ba 25 799 497 128
2471021 2024-02-09 0949 412 HPS North Ocean 102 / McDermott XOE iw
2472568 2024-02-09 0932 401 Y8 Drummondville QC CAN na FN35tu 126 1692 1051 56
2472570 2024-02-09 0922 521 TO 'Biloy' Topeka KS USA na EM29dc 25 442 274 277
2438282 2023-11-10 0527 353 AB 'Tomhi' Abilene TX USA na EM02dh 1087 676 231
2438281 2023-11-10 0519 351 MSQ Culpeper VA USA na FM18bk 25 1108 688 87
2438280 2023-11-10 0514 346 VU 'Aller' Albemarle NC USA na EM95xl 1005 624 107
2438279 2023-11-10 0509 341 HVS Hartsville SC USA na EM94wj 25 1053 654 113
2438278 2023-11-10 0449 315 AT 'Bruny' Dayton OH USA na EM79tu 552 343 74
2438277 2023-11-10 0430 275 RU 'Rovdy' Salisbury NC USA na EM95sr 959 596 107
2438276 2023-11-08 1036 237 EZF 'Shannon' Fredericksburg VA USA na FM18gg 25 1146 712 88
2438275 2023-11-08 1034 233 OKS Oshkosh NE USA na DN81tj 25 1042 647 290
2438287 2023-11-08 1003 414 GL 'Shugr' Goodland KS USA na DM99eh 25 952 591 277
2438286 2023-11-08 0956 414 LK 'Laang' Louisville KY USA na EM78ed 440 274 96
2438285 2023-11-08 0952 407 BZ 'Bullo' Statesboro GA USA na EM92ek 25 1072 666 127
2438284 2023-11-06 0921 388 HAH 'Natchez-Adams Co' Natchez MS USA na EM41iq 785 488 184
2438283 2023-11-06 0859 365 PAL Palma EQA sa FI07cx 1000 4665 2898 163
2436188 2023-11-03 0621 272 RH 'Arsha' Rhinelander WI USA na EN55ep 773 481 5
2436187 2023-11-03 0613 271 HXO Huntsboro NC USA na FM06qh 25 1091 678 100
2436186 2023-11-03 0605 263 LQL 'Lakeland' Willoughby OH USA na EN91hq 25 851 529 64
2436185 2023-11-03 0605 263 GR 'Knobs' Grand Rapids MI USA na EN72hv 640 398 41
2436184 2023-11-03 0602 257 MB 'Olste' Saginaw MI USA na EN73vl 753 468 43
2436183 2023-11-03 0558 257 DT 'Pinck' Denton TX USA na EM13jg 25 847 527 226
2436192 2023-11-03 0555 257 FWC 'Wayne County' Fairfield IL USA na EM58tj 25 199 124 100
2436182 2023-11-03 0553 254 LLW 'Woodville' Elizabeth City NC USA na FM16ug 50 1292 803 97
2436181 2023-11-03 0549 253 GB 'Garno' Marshall MN USA na EN24bm 25 777 483 327
2436180 2023-11-03 0544 251 AM 'Pande' Amarillo TX USA na DM95cd 400 1068 664 251
2436179 2023-11-03 0541 245 FS 'Rokky' Sioux Falls SD USA na EN13ol 100 738 459 317
2436178 2023-11-03 0538 242 LKG 'Lindbergh' Americus GA USA na EM72we 25 935 581 139
2436177 2023-11-03 0534 236 ZHT 'Forks' Winnipeg MB CAN na EN19ku 50 1340 832 339
2436176 2023-11-03 0520 209 SYS 'Stoystown' Somerset PA USA na FN00nc 25 1020 634 77
2436191 2023-11-03 0443 410 GG 'Veels' Longview TX USA na EM22ok 794 494 209
2436190 2023-11-03 0431 402 L4 Nipawin SK CAN na DO73xi 200 1921 1193 332
2436189 2023-11-03 0429 402 CV Carlz Carlsbad NM USA na DM72tg 1435 891 244
2436151 2023-11-02 0554 388 PK 'Versi' parkersburg WV USA na EM99gg 794 493 82
2436150 2023-11-02 0536 379 RUE Russellville AR USA na EM35kg 25 444 276 210
2436149 2023-11-02 0533 379 UG 'Wauke' Waukegan (Chicago) IL USA na EN62cl 25 481 299 28
2436148 2023-11-02 0529 378 UX Hall Beach NU CAN na EP98is 400 3388 2105 6
2436147 2023-11-02 0503 365 JN 'Balll' Muncie IN USA na EN70ie 486 302 68
2436146 2023-11-02 0459 362 MT Manitowac WI USA na EN64de 654 406 20
2435259 2023-11-01 0900 344 SE Pollk (Selma) AL USA na EM62mg 791 491 154
2433884 2023-10-29 0043 344 ES 'Pikle' Escanaba MI USA na EN65jr 25 827 514 18
2433883 2023-10-29 0033 335 DR 'Kotti' Del Rio TX USA na DL99mk 1403 871 225
2433804 2023-10-28 1136 347 SBX Shelby MT USA na DN48bm 50 2017 1253 309
2433801 2023-10-28 1133 345 GF 'Hiser' Grand Forks ND USA na EN17ju 1145 711 334
2433798 2023-10-28 1123 342 ST 'Hussk' St Cloud MN USA na EN35al 25 799 497 340
2433787 2023-10-28 1114 337 FF 'Hamre' Fergus Falls MN USA na EN16xf 25 944 587 333
2433789 2023-10-28 0430 338 RYN 'Ryan' Tucson AZ USA na DM42kd 400 1991 1237 254
2433796 2023-10-28 0356 341 EI 'Garfy' Enid OK USA na EM16cg 688 428 248
2433792 2023-10-28 0111 338 YPX Puvirnituq QC CAN na FP10ib 500 2549 1584 17
2433783 2023-10-28 0109 335 BK 'CHRLZ' Brookings SD USA na EN14mi 25 817 508 321
2433788 2023-10-28 0100 338 HR 'Sebas' Harlingen TX USA na EL16eh 25 1527 949 207
2433786 2023-10-28 0058 336 MA 'Wexford' Cadillac MI USA na EN74ff 743 462 33
2433805 2023-10-28 0045 349 GW 'Teock' Greenwood MS USA na EM43wo 25 572 355 175
2433803 2023-10-28 0043 346 YXL Sioux Lookout ON CAN na EO40bc 1000 1269 788 355
2433802 2023-10-28 0043 346 VU 'Aller' Albemarle NC USA na EM95xl 1005 624 107
2433799 2023-10-28 0035 344 JL 'Lunns' Joplin MO USA na EM27re 384 238 244
2433800 2023-10-28 0033 344 TKH 'Tallulah' Vicksburg LA USA na EM42lf 724 450 183
2433795 2023-10-28 0023 341 DNI Denison TX USA na EM13pt 25 772 480 226
2433794 2023-10-28 0021 341 CQN 'Daisy' Chattanooga TN USA na EM75kd 50 630 392 127
2433793 2023-10-28 0020 340 GN 'Brindl' Lexington KY USA na EM78rc 534 332 95
2433791 2023-10-28 0018 338 TU 'Oillr' Tulsa OK USA na EM26bc 548 340 239
2433790 2023-10-28 0015 338 TT 'Stutt' Stuttgart AR USA na EM44fm 25 475 295 190
2433785 2023-10-28 0007 335 CK 'Snuff' Clarksville TN USA na EM66hm 377 234 129
2433797 2023-10-27 1712 341 FO 'Barro' Fort Dodge IA USA na EN22um 25 523 325 324
2433784 2023-10-27 1704 335 BV 'Almnd' Batesville AR USA na EM45cq 25 354 220 197
2433012 2023-10-23 0704 381 MNI Manning SC USA na EM93vo 25 1094 680 118
2433011 2023-10-23 0657 372 MF 'Manns' Mansfield OH USA na EN80ss 734 456 69
2433010 2023-10-23 0655 368 SX Skookum (Cranbrook) BC CAN na DN29cw 500 2341 1454 310
2433009 2023-10-23 0645 365 TOI 'Blood' Troy AL USA na EM61wt 871 541 150
2433008 2023-10-23 0635 362 CD 'Dawes' Chadron NE USA na DN82js 1150 714 297
2433007 2023-10-23 0634 362 AK Akron OH USA na EN91hb 830 516 68
2433006 2023-10-23 0633 361 HB 'Himun' Burlington NC USA na FM05ex 1018 633 104
2432998 2023-10-23 0624 344 ES 'Pikle' Escanaba MI USA na EN65jr 25 827 514 18
2432997 2023-10-23 0623 342 ST 'Hussk' St Cloud MN USA na EN35al 25 799 497 340
2432996 2023-10-23 0618 341 EI 'Garfy' Enid OK USA na EM16cg 688 428 248
2433005 2023-10-23 0608 359 GYG Grayling MI USA na EN74or 25 824 512 34
2433004 2023-10-23 0602 356 ODX Ord NE USA na EN01mo 25 776 482 296
2433003 2023-10-23 0558 355 CS 'Fenix' Columbus GA USA na EM72lk 862 536 142
2433002 2023-10-23 0555 353 VV 'Junne' Greensboro GA USA na EM83lp 884 549 127
2433001 2023-10-23 0552 351 MSQ Culpeper VA USA na FM18bk 25 1108 688 87
2433000 2023-10-23 0550 351 AE 'Dudle' Albuquerque NM USA na DM65pf 1478 919 259
2432999 2023-10-23 0549 350 LF 'Flufy' Lufkin TX USA na EM21of 916 569 205
2432957 2023-10-22 0852 260 MTH Marathon FL USA na EL94kr 100 1795 1115 147
2432956 2023-10-22 0840 251 YCD Nanaimo BC CAN na CN89bd 500 2874 1786 304
2432955 2023-10-22 0835 245 GTP 'Patten' Thomasville GA USA na EM80cw 1067 663 142
2432954 2023-10-22 0826 236 ZHT 'Forks' Winnipeg MB CAN na EN19ku 50 1340 832 339
2432953 2023-10-22 0814 219 ZRS 'Ajax' Regina SK CAN na DO70pl 1712 1063 324
2432952 2023-10-22 0802 204 ZQR 'Findlay' Regina SK CAN na DO70rk 20 1700 1056 324
2432960 2023-10-21 0741 407 ZHU Hauts-Bois / St Hubert (Montreal) QC CAN na FN35hn 95 1608 999 56
2432959 2023-10-21 0737 405 8888 William P. Gwinn Airport - Jupiter FL USA na EL96tv 1625 1010 141
2432958 2023-10-21 0736 402 L4 Nipawin SK CAN na DO73xi 200 1921 1193 332
2431874 2023-10-18 1022 260 JH 'Brenz' Jackson MS USA na EM42uj 705 438 177
2431873 2023-10-18 1020 257 XE Saskatoon SK CAN na DO62oe 25 1948 1210 325
2431872 2023-10-18 1020 257 LW Kelowna BC CAN na DO00hb 50 2586 1606 308
2431871 2023-10-18 1014 253 GB 'Garno' Marshall MN USA na EN24bm 25 777 483 327
2431870 2023-10-18 1007 250 FO Flin Flon MB CAN na DO94dq 1600 1960 1218 338
2431869 2023-10-18 1004 242 XC Cranbrook BC CAN na DN29cq 400 2330 1448 309
2431868 2023-10-18 1000 236 BW 'Noora' Bowling Green KY USA na EM36fv 327 203 232
2431867 2023-10-18 0955 230 BU 'Boutn' Columbus OH USA na EM89jt 649 404 76
2431866 2023-10-18 0952 227 SQ 'Pnthr' Connersville IN USA na EM79ks 25 487 303 74
2431865 2023-10-18 0951 227 GW 'Aubon' De Kalb County, Auburn IN USA na EN71mh 25 561 349 57
2431864 2023-10-18 0949 221 HM Hamilton (Carluke) ON CAN na EN93xc 25 1012 629 57
2431863 2023-10-18 0942 209 ITR 'Kit Carson' Burlington CO USA na DM89uf 25 1009 627 276
2431862 2023-10-18 0940 206 XBE Bearskin Lake ON CAN na EO43lx 25 1696 1054 359
2431157 2023-10-16 0704 407 BZ 'Bullo' Statesboro GA USA na EM92ek 25 1072 666 127
2431155 2023-10-16 0702 404 MOG Montague CA USA na CN81sr 25 2707 1682 287
2431154 2023-10-16 0701 404 HU 'Saltt' Hutchinson KS USA na EM18ac 25 642 399 266
2431156 2023-10-16 0700 404 XCR 'Ripley' Little Falls MN USA na EN26tb 50 871 541 340
2431153 2023-10-16 0656 393 BR 'Depoo' Brownsville TX USA na EL15fx 1558 968 206
2431152 2023-10-16 0648 385 DXB De Ridder LA USA na EM30hs 920 571 196
2431151 2023-10-16 0639 379 YPQ Peterborough ON CAN na FN04sf 25 1182 734 54
2431150 2023-10-16 0637 375 LF 'Laffs' Lafayette LA USA na EM40bg 947 589 187
2431149 2023-10-16 0629 369 ZDX Coolidge Saint Johns ATG ca FK97cd 700 3683 2289 122
2431148 2023-10-14 0445 363 RNB 'Rainbow' Millville NJ USA na FM29kk 50 1338 832 81
2431147 2023-10-14 0441 360 PI 'Capok' St Petersburg / Clearwater FL USA na EL87px 1402 871 146
2431146 2023-10-14 0432 346 VU 'Aller' Albemarle NC USA na EM95xl 1005 624 107
2431143 2023-10-14 0410 317 ZZR 'Trenton (Apt)' Severn ON CAN na FN14eb 50 1234 767 57
2431136 2023-10-13 0503 275 HIN 'Whitney' Chadron NE USA na DN82kt 25 1145 711 297
2431137 2023-10-13 0446 275 RU 'Rovdy' Salisbury NC USA na EM95sr 959 596 107
2431145 2023-10-13 0442 338 JZ 'Newbn' Lawrence KS USA na EM28kv 25 390 242 274
2431144 2023-10-13 0433 326 FC Fredericton NB CAN na FN65qw 1600 2119 1317 60
2431142 2023-10-13 0432 314 VTN Valentine NE USA na DN92ru 25 952 591 301
2431141 2023-10-13 0426 293 TOR Torrington WY USA na DN72wb 25 1200 746 292
2431140 2023-10-13 0421 280 GYZ 'Camp Guernsey' Guernsey WY USA na DN72pf 50 1251 777 292
2431139 2023-10-13 0419 278 CEP 'Capitan' Ruidoso NM USA na DM73hl 25 1446 898 250
2431138 2023-10-13 0418 277 OT 'Wondd' Worthington MN USA na EN23go 25 676 420 324
2431135 2023-10-13 0411 263 YGK Kingston ON CAN na FN14qh 1000 1318 819 57
2431134 2023-10-13 0406 263 GR 'Knobs' Grand Rapids MI USA na EN72hv 640 398 41
2431133 2023-10-13 0358 253 DD 'Cobbs' Columbus OH USA na EM89lr 49 662 412 77
2431132 2023-10-13 0355 250 UGS 'University' Athens / Albany OH USA na EM89wg 25 737 458 82
2431130 2023-10-13 0345 207 YNE Norway House MB CAN na EO13bx 1000 1782 1107 344
2431131 2023-10-13 0338 221 RP 'Wickr' Rice Lake Airport, Carl's Field WI USA na EN45ch 738 459 352
2429323 2023-10-10 0453 338 YPX Puvirnituq QC CAN na FP10ib 500 2549 1584 17
2429321 2023-10-10 0450 338 HR 'Sebas' Harlingen TX USA na EL16eh 25 1527 949 207
2429322 2023-10-10 0449 338 TU 'Oillr' Tulsa OK USA na EM26bc 548 340 239
2429320 2023-10-10 0447 337 FF 'Hamre' Fergus Falls MN USA na EN16xf 25 944 587 333
2429319 2023-10-10 0446 336 MA 'Wexford' Cadillac MI USA na EN74ff 743 462 33
2429318 2023-10-10 0444 335 BK 'CHRLZ' Brookings SD USA na EN14mi 25 817 508 321
2429317 2023-10-10 0443 334 YER Fort Severn ON CAN na EO65ex 195 1931 1200 5
2429316 2023-10-10 0440 332 SG 'Depre' Green Bay WI USA na EN54wj 25 663 412 17
2429315 2023-10-10 0440 332 QT Thunder Bay ON CAN na EN58gi 1000 1074 667 4
2429313 2023-10-10 0438 332 HK 'Tawba' Hickory NC USA na EM95is 25 889 552 108
2429314 2023-10-10 0436 332 IC 'Piche' Wichita KS USA na EM17gn 25 611 380 259
2429312 2023-10-10 0434 331 JV 'Catch' Jeffersonville IN USA na EM78dl 428 266 92
2429311 2023-10-10 0428 328 YTL Big Trout Lake ON CAN na EO53bt 1000 1678 1043 1
2429310 2023-10-10 0427 326 MA 'Farly' Midland TX USA na DM81ux 400 1295 805 238
2429309 2023-10-10 0424 323 OUK Calhoun GA USA na EM74mj 24 698 434 131
2429308 2023-10-10 0420 316 FFC 'Pecat' Peachtree City GA USA na EM73sh 818 508 135
2429307 2023-10-10 0418 315 AT 'Bruny' Dayton OH USA na EM79tu 552 343 74
2429306 2023-10-10 0413 305 RO 'Topan' Roswell NM USA na DM73si 400 1378 856 248
2429305 2023-10-10 0409 300 YIV Island Lake MB CAN na EO23qu 500 1709 1062 351
2429304 2023-10-09 0621 284 BT 'Rundi' Baton Rouge LA USA na EM40jn 910 565 183
2429303 2023-10-09 0612 278 EOE 'Enoree' Newberry SC USA na EM94eh 25 942 585 118
2429302 2023-10-09 0610 278 AUR 'Sulfy' Sulphur LA USA na EM30ge 25 984 612 196
2429301 2023-10-09 0605 275 GUY Guymon OK USA na DM96fq 25 986 613 260
2429300 2023-10-09 0603 274 RG Red Wing MN USA na EN34qo 25 674 419 346
2429299 2023-10-09 0557 269 UDE Delta MB CAN na EO00ud 50 1406 874 337
2429298 2023-10-09 0555 267 HET Henryetta OK USA na EM15xj 25 607 377 234
2429296 2023-10-09 0549 253 OC 'Nados' Nacogdoches TX USA na EM21pl 25 887 551 205
2429294 2023-10-09 0542 245 CB Cambridge Bay NU CAN na DP79lc 1000 3486 2166 350
2429297 2023-10-09 0533 258 ZSJ Sandy Lake ON CAN na EO33hb 500 1608 999 353
2429295 2023-10-05 2331 245 HU 'Yinno' Terre Haute IN USA na EM69hj 290 180 74
2424594 2023-09-25 1034 407 HRU Herington KS USA na EM18oq 25 535 332 271
2424595 2023-09-25 1029 409 YTA Pembroke ON CAN na FN15jt 25 1353 841 50
2424210 2023-09-23 0732 418 CW 'Mossy' Lake Charles LA USA na EM30jh 25 965 600 194
2424208 2023-09-23 0728 416 LB 'Panbe' North Platte NE USA na DN91rb 50 884 549 290
2424202 2023-09-23 0723 404 HU 'Saltt' Hutchinson KS USA na EM18ac 25 642 399 266
2424201 2023-09-23 0720 402 CV Carlz Carlsbad NM USA na DM72tg 1435 891 244
2424200 2023-09-23 0719 401 YPO Peawanuck ON CAN na EO74gx 125 1848 1148 10
2424187 2023-09-23 0708 378 RJ Roberval QC CAN na FN38un 500 1828 1136 47
2424181 2023-09-23 0705 369 ZDX Coolidge Saint Johns ATG ca FK97cd 700 3683 2289 122
2424174 2023-09-23 0655 353 QG Saint Clair Beach (Windsor) ON CAN na EN82nh 25 766 476 56
2424160 2023-09-23 0645 331 JV 'Catch' Jeffersonville IN USA na EM78dl 428 266 92
2424156 2023-09-23 0638 317 ZZR 'Trenton (Apt)' Severn ON CAN na FN14eb 50 1234 767 57
2424152 2023-09-23 0622 284 BT 'Rundi' Baton Rouge LA USA na EM40jn 910 565 183
2424151 2023-09-23 0617 280 GYZ 'Camp Guernsey' Guernsey WY USA na DN72pf 50 1251 777 292
2424197 2023-09-23 0333 395 OS 'Pober' Oshkosh WI USA na EN53ru 596 370 16
2424186 2023-09-23 0327 376 LC 'Pickl' Columbus OH USA na EM89nv 25 679 422 76
2424183 2023-09-23 0324 372 UQN 'Onyun' Vidalia GA USA na EM82uf 25 1044 649 131
2424168 2023-09-23 0308 344 TKH 'Tallulah' Vicksburg LA USA na EM42lf 724 450 183
2424164 2023-09-23 0306 336 MA 'Wexford' Cadillac MI USA na EN74ff 743 462 33
2424158 2023-09-23 0302 328 YTL Big Trout Lake ON CAN na EO53bt 1000 1678 1043 1
2424154 2023-09-23 0256 300 YIV Island Lake MB CAN na EO23qu 500 1709 1062 351
2424150 2023-09-23 0252 278 GPQ Carrollton GA USA na EM73kn 25 757 470 137
2424211 2023-09-23 0246 419 RYS 'Grosse Ile' Detroit / Grosse Ile MI USA na EN82kc 25 737 458 57
2424212 2023-09-23 0246 420 PK Olathe KS USA na EM28ps 25 354 220 272
2424209 2023-09-23 0242 417 SLP 'First River' Shelby NC USA na EM95eg 25 886 551 112
2424207 2023-09-23 0237 414 CSS 'Court House' Washington Court House OH USA na EM89ho 25 632 393 78
2424206 2023-09-23 0230 412 CMY 'Mc Coy' Sparta WI USA na EN43qw 10 579 360 0
2424205 2023-09-23 0228 410 BA 'Clifs' Columbus IN USA na EM79ch 25 422 262 79
2424204 2023-09-23 0227 408 JDM 'Wheatfield' Colby KS USA na DM99lm 25 902 561 278
2424196 2023-09-23 0217 394 AI 'Video' Anderson IN USA na EN70fb 25 461 287 69
2424195 2023-09-23 0214 392 FMZ 'Beklof' Fairmont NE USA na EN10fo 25 627 390 291
2424194 2023-09-23 0213 391 DDP San Juan / Dorado / Luiz Munoz Marin Intl PR PTR ca FK68tl 2000 3247 2017 127
2424191 2023-09-23 0213 385 EMR 'Emory' Augusta GA USA na EM93al 400 972 604 124
2424190 2023-09-23 0212 383 CNP Chappell NE USA na DN81sb 25 1041 647 288
2424147 2023-09-23 0211 385 UWL New Castle IN USA na EM79iv 25 477 296 72
2424188 2023-09-23 0208 379 BRA 'Broad River' Asheville NC USA na EM85sg 100 820 510 115
2424184 2023-09-23 0206 374 HY 'Nette' Hays KS USA na EM08js 744 462 273
2424180 2023-09-23 0202 368 TEC 'Tech' Blacksburg VA USA na EM97te 25 914 568 97
2424179 2023-09-23 0201 366 EZM Eastman GA USA na EM82kd 25 998 620 134
2424177 2023-09-23 0200 363 RNB 'Rainbow' Millville NJ USA na FM29kk 50 1338 832 81
2424176 2023-09-23 0159 362 SUR Fitzgerald GA USA na EM81io 25 1035 643 137
2424173 2023-09-23 0150 351 YKQ Waskaganish QC CAN na FO01pl 500 1694 1052 29
2424171 2023-09-23 0149 349 GW 'Teock' Greenwood MS USA na EM43wo 25 572 355 175
2424169 2023-09-23 0148 346 YXL Sioux Lookout ON CAN na EO40bc 1000 1269 788 355
2424167 2023-09-23 0142 341 CQN 'Daisy' Chattanooga TN USA na EM75kd 50 630 392 127
2424165 2023-09-23 0141 338 TT 'Stutt' Stuttgart AR USA na EM44fm 25 475 295 190
2424166 2023-09-23 0141 340 GN 'Brindl' Lexington KY USA na EM78rc 534 332 95
2424203 2023-09-22 1758 407 CM 'Veals' Champaign / Urbana IL USA na EM59vx 250 155 55
2424199 2023-09-22 1757 400 AHQ Wahoo NE USA na EN11qf 582 361 300
2424198 2023-09-22 1755 397 CIR Cairo IL USA na EM57jb 25 223 139 145
2424193 2023-09-22 1745 390 BR 'Burns' Burlington IL USA na EN40kp 25 217 135 348
2424192 2023-09-22 1744 388 MD 'Cabbi' Carbondale / Murphysboro IL USA na EM57ju 157 98 127
2424146 2023-09-22 1744 385 JD 'Gooey' Belleville IL USA na EM58dl 84 52 108
2424145 2023-09-22 1742 382 SP 'Huskk' Springfield IL USA na EM59cs 25 136 85 31
2424189 2023-09-22 1742 382 MW 'Jonny' Marion IL USA na EM57mu 25 175 109 123
2424185 2023-09-22 1738 375 LQ 'Licol' Springfield IL USA na EM59ev 156 97 33
2424182 2023-09-22 1737 371 RYV 'Rock River' Watertown WI USA na EN53pe 25 521 324 17
2424178 2023-09-22 1736 365 SYZ Shelbyville IL USA na EM59nj 25 168 105 63
2424175 2023-09-22 1734 356 PI 'Tungg' Peoria IL USA na EN50eo 40 225 140 22
2424172 2023-09-22 1733 350 CP 'Acore' Cahokia / St Louis IL USA na EM48xm 25 56 35 114
2424170 2023-09-22 1733 347 AFK Nebraska City NE USA na EN20bo 495 308 296
2424163 2023-09-22 1721 335 BV 'Almnd' Batesville AR USA na EM45cq 25 354 220 197
2424161 2023-09-22 1719 332 DN 'Julip' Danville IL USA na EN60fg 315 196 56
2424162 2023-09-22 1719 334 LH 'Egrow' Bloomington IL USA na EN50nn 253 157 35
2424159 2023-09-22 1717 329 AAA 'Abraham' Lincoln IL USA na EN50hd 25 191 118 33
2424157 2023-09-22 1716 326 SU 'Snoop' Saint Louis MO USA na EM48op 25 17 11 237
2424155 2023-09-22 1714 305 OI 'Tommi' South Sioux City NE USA na EN12sl 25 645 401 312
2424144 2023-09-22 1710 293 UI Quincy IL USA na EM49iv 25 142 88 336
2424153 2023-09-22 1710 293 FBY Fairbury NE USA na EN10ke 50 581 361 288
2424149 2023-09-22 1709 277 OT 'Wondd' Worthington MN USA na EN23go 25 676 420 324
2424148 2023-09-22 1707 275 DE 'Elwin' Decatur IL USA na EM59ms 184 115 50
2423776 2023-09-18 0446 359 GYG Grayling MI USA na EN74or 25 824 512 34
2423775 2023-09-18 0428 350 CP 'Acore' Cahokia / St Louis IL USA na EM48xm 25 56 35 114
2423774 2023-09-18 0425 346 VU 'Aller' Albemarle NC USA na EM95xl 1005 624 107
2423773 2023-09-18 0406 341 SB 'Misha' South Bend IN USA na EN61vq 499 310 47
2423772 2023-09-18 0405 341 EI 'Garfy' Enid OK USA na EM16cg 688 428 248
2423771 2023-09-18 0403 340 GN 'Brindl' Lexington KY USA na EM78rc 534 332 95
2423770 2023-09-18 0402 338 YPX Puvirnituq QC CAN na FP10ib 500 2549 1584 17
2422032 2023-09-08 0458 515 PN 'Ponca' Ponca City OK USA na EM16kt 25 610 379 251
2422030 2023-09-08 0456 420 PK Olathe KS USA na EM28ps 25 354 220 272
2422031 2023-09-08 0456 426 UV 'Tunng' Oxford MS USA na EM54ej 25 490 304 169
2422029 2023-09-08 0451 417 SLP 'First River' Shelby NC USA na EM95eg 25 886 551 112
2422028 2023-09-08 0448 414 GRN Gordon NE USA na DN82vt 1075 668 298
2422027 2023-09-08 0445 412 CMY 'Mc Coy' Sparta WI USA na EN43qw 10 579 360 0
2422026 2023-09-08 0443 410 GG 'Veels' Longview TX USA na EM22ok 794 494 209
2422025 2023-09-08 0440 407 AQ 'Kooky' Appleton WI USA na EN54tf 25 640 397 16
2422024 2023-09-08 0436 404 XCR 'Ripley' Little Falls MN USA na EN26tb 50 871 541 340
2422023 2023-09-08 0430 397 ZSS Yellowhead (Saskatoon) SK CAN na DO62pf 25 1947 1210 325
2422022 2023-09-08 0422 392 AGZ Wagner SD USA na EN03ub 25 804 500 309
2422021 2023-09-08 0412 385 EMR 'Emory' Augusta GA USA na EM93al 400 972 604 124
2422020 2023-09-08 0405 376 LC 'Pickl' Columbus OH USA na EM89nv 25 679 422 76
2422019 2023-09-08 0403 374 HY 'Nette' Hays KS USA na EM08js 744 462 273
2422017 2023-09-08 0359 371 RYV 'Rock River' Watertown WI USA na EN53pe 25 521 324 17
2422016 2023-09-08 0357 369 ZDX Coolidge Saint Johns ATG ca FK97cd 700 3683 2289 122
2422015 2023-09-08 0355 368 TEC 'Tech' Blacksburg VA USA na EM97te 25 914 568 97
2422014 2023-09-08 0352 366 EZM Eastman GA USA na EM82kd 25 998 620 134
2422013 2023-09-08 0348 365 FT 'Mufin' Fort Worth TX USA na EM12hv 25 889 552 225
2422012 2023-09-08 0346 362 SUR Fitzgerald GA USA na EM81io 25 1035 643 137
2422011 2023-09-08 0344 362 MT Manitowac WI USA na EN64de 654 406 20
2422010 2023-09-08 0333 350 LF 'Flufy' Lufkin TX USA na EM21of 916 569 205
2422018 2023-09-07 0346 372 UQN 'Onyun' Vidalia GA USA na EM82uf 25 1044 649 131
2422009 2023-09-07 0323 344 JL 'Lunns' Joplin MO USA na EM27re 384 238 244
2422008 2023-09-07 0320 341 DNI Denison TX USA na EM13pt 25 772 480 226
2421418 2023-09-04 0755 338 JZ 'Newbn' Lawrence KS USA na EM28kv 25 390 242 274
2421417 2023-09-04 0725 316 FFC 'Pecat' Peachtree City GA USA na EM73sh 818 508 135
2421416 2023-09-04 0700 278 GPQ Carrollton GA USA na EM73kn 25 757 470 137
2421394 2023-09-03 0620 227 TNZ 'Lawrence Co.' Walnut Ridge AR USA na EM46me 25 284 177 186
2421398 2023-09-02 0434 410 BA 'Clifs' Columbus IN USA na EM79ch 25 422 262 79
2421397 2023-09-02 0413 394 AI 'Video' Anderson IN USA na EN70fb 25 461 287 69
2421396 2023-09-01 1535 275 DE 'Elwin' Decatur IL USA na EM59ms 184 115 50
2421395 2023-09-01 1531 272 IK Kankakee IL USA na EN61ba 346 215 41
2417879 2023-08-28 1111 400 AI 'Addmo' Ardmore OK USA na EM14mf 25 755 469 230
2417833 2023-08-28 1055 338 TT 'Stutt' Stuttgart AR USA na EM44fm 25 475 295 190
2417821 2023-08-28 1042 293 FBY Fairbury NE USA na EN10ke 50 581 361 288
2417818 2023-08-28 1031 269 UDE Delta MB CAN na EO00ud 50 1406 874 337
2417817 2023-08-28 1024 258 ZSJ Sandy Lake ON CAN na EO33hb 500 1608 999 353
2417809 2023-08-28 1013 212 YGX Gillam MB CAN na EO26pi 1983 1232 352
2417807 2023-08-28 1008 207 YNE Norway House MB CAN na EO13bx 1000 1782 1107 344
2417874 2023-08-28 0541 393 BR 'Depoo' Brownsville TX USA na EL15fx 1558 968 206
2417872 2023-08-28 0536 392 AGZ Wagner SD USA na EN03ub 25 804 500 309
2417864 2023-08-28 0531 383 CNP Chappell NE USA na DN81sb 25 1041 647 288
2417855 2023-08-28 0523 374 HY 'Nette' Hays KS USA na EM08js 744 462 273
2417854 2023-08-28 0516 371 RYV 'Rock River' Watertown WI USA na EN53pe 25 521 324 17
2417853 2023-08-28 0515 371 GW Jarpik Kuujjuarapik QC CAN na FO15cg 500 2073 1288 23
2417852 2023-08-28 0514 368 TEC 'Tech' Blacksburg VA USA na EM97te 25 914 568 97
2417850 2023-08-28 0508 365 AA 'Kenie' Fargo MN USA na EN17oa 100 1049 652 333
2417846 2023-08-28 0455 356 GR 'Famis' Green Bay WI USA na EN54vk 666 414 16
2417847 2023-08-28 0454 356 ODX Ord NE USA na EN01mo 25 776 482 296
2417843 2023-08-28 0450 353 GVB 'Bogalusa' George R Carr Memorial Airfield LA USA na EM50bv 874 543 175
2417841 2023-08-28 0446 349 GW 'Teock' Greenwood MS USA na EM43wo 25 572 355 175
2417838 2023-08-28 0436 344 JL 'Lunns' Joplin MO USA na EM27re 384 238 244
2417836 2023-08-28 0433 341 DNI Denison TX USA na EM13pt 25 772 480 226
2417837 2023-08-28 0431 341 FO 'Barro' Fort Dodge IA USA na EN22um 25 523 325 324
2417835 2023-08-28 0429 341 CQN 'Daisy' Chattanooga TN USA na EM75kd 50 630 392 127
2417834 2023-08-28 0428 340 GN 'Brindl' Lexington KY USA na EM78rc 534 332 95
2417832 2023-08-28 0421 335 CK 'Snuff' Clarksville TN USA na EM66hm 377 234 129
2417886 2023-08-28 0408 407 ZHU Hauts-Bois / St Hubert (Montreal) QC CAN na FN35hn 95 1608 999 56
2417877 2023-08-28 0400 397 ZHA Ancaster (Hamilton) ON CAN na EN93xe 14 1016 632 57
2417875 2023-08-28 0357 395 OS 'Pober' Oshkosh WI USA na EN53ru 596 370 16
2417859 2023-08-28 0344 379 BRA 'Broad River' Asheville NC USA na EM85sg 100 820 510 115
2417858 2023-08-28 0342 376 LC 'Pickl' Columbus OH USA na EM89nv 25 679 422 76
2417890 2023-08-28 0338 420 FQ 'Montz' Fairmont MN USA na EN23tp 25 630 392 331
2417891 2023-08-28 0335 420 PK Olathe KS USA na EM28ps 25 354 220 272
2417889 2023-08-28 0335 419 RYS 'Grosse Ile' Detroit / Grosse Ile MI USA na EN82kc 25 737 458 57
2417888 2023-08-28 0329 412 CMY 'Mc Coy' Sparta WI USA na EN43qw 10 579 360 0
2417887 2023-08-28 0325 408 JDM 'Wheatfield' Colby KS USA na DM99lm 25 902 561 278
2417882 2023-08-28 0322 407 AQ 'Kooky' Appleton WI USA na EN54tf 25 640 397 16
2417885 2023-08-28 0319 407 IL 'Airbo' Wilmington OH USA na EM89dl 25 602 374 79
2417884 2023-08-28 0318 407 HRU Herington KS USA na EM18oq 25 535 332 271
2417881 2023-08-28 0313 401 YPO Peawanuck ON CAN na EO74gx 125 1848 1148 10
2417878 2023-08-28 0312 400 AHQ Wahoo NE USA na EN11qf 582 361 300
2417880 2023-08-28 0309 400 CI 'Koloe' Sault Ste. Marie MI USA na EN76rh 25 979 608 28
2417871 2023-08-28 0303 391 DDP San Juan / Dorado / Luiz Munoz Marin Intl PR PTR ca FK68tl 2000 3247 2017 127
2417867 2023-08-28 0301 388 CDX 'Cumberland River' Somerset KY USA na EM76px 25 555 345 108
2417865 2023-08-28 0258 385 HO 'Hossy' Hot Springs AR USA na EM34jk 50 530 329 206
2417861 2023-08-28 0257 379 RUE Russellville AR USA na EM35kg 25 444 276 210
2417860 2023-08-28 0256 379 DL 'Pykla' Duluth MN USA na EN36tu 915 568 351
2417856 2023-08-28 0253 375 DS Searcy AR USA na EM45cc 25 416 259 194
2417849 2023-08-28 0246 362 SB Sudbury ON CAN na EN96mp 400 1181 734 38
2417845 2023-08-28 0243 353 QG Saint Clair Beach (Windsor) ON CAN na EN82nh 25 766 476 56
2417844 2023-08-28 0242 353 PG Portage MB CAN na EN09vu 25 1375 854 336
2417842 2023-08-28 0238 351 YKQ Waskaganish QC CAN na FO01pl 500 1694 1052 29
2417840 2023-08-28 0236 347 AFK Nebraska City NE USA na EN20bo 495 308 296
2417820 2023-08-28 0213 273 FK 'Airbe' Fort Campbell (Hopkinsville) KY USA na EM66hr 25 362 225 126
2417808 2023-08-28 0155 212 UC 'Obion' Union City TN USA na EM56mh 25 306 190 150
2417873 2023-08-26 1042 392 FMZ 'Beklof' Fairmont NE USA na EN10fo 25 627 390 291
2417868 2023-08-26 1041 388 CFJ Crawfordsville IN USA na EM69nx 25 351 218 65
2417829 2023-08-26 1028 332 FIS 'Fish Hook' Key West FL USA na EL94cn 400 1781 1107 149
2417823 2023-08-26 1026 300 YIV Island Lake MB CAN na EO23qu 500 1709 1062 351
2417814 2023-08-26 1019 250 FO Flin Flon MB CAN na DO94dq 1600 1960 1218 338
2417810 2023-08-26 1013 218 YUY Rouyn QC CAN na FN08me 500 1408 875 37
2417839 2023-08-26 0558 346 YXL Sioux Lookout ON CAN na EO40bc 1000 1269 788 355
2417830 2023-08-26 0556 332 QT Thunder Bay ON CAN na EN58gi 1000 1074 667 4
2417826 2023-08-26 0554 328 YTL Big Trout Lake ON CAN na EO53bt 1000 1678 1043 1
2417806 2023-08-26 0541 200 YAQ Kasabonika ON CAN na EO53qm 50 1652 1026 4
2417831 2023-08-25 1749 335 BV 'Almnd' Batesville AR USA na EM45cq 25 354 220 197
2417824 2023-08-25 1746 305 OI 'Tommi' South Sioux City NE USA na EN12sl 25 645 401 312
2417883 2023-08-25 1739 407 CM 'Veals' Champaign / Urbana IL USA na EM59vx 250 155 55
2417876 2023-08-25 1739 397 CIR Cairo IL USA na EM57jb 25 223 139 145
2417870 2023-08-25 1736 390 BR 'Burns' Burlington IL USA na EN40kp 25 217 135 348
2417869 2023-08-25 1735 388 MD 'Cabbi' Carbondale / Murphysboro IL USA na EM57ju 157 98 127
2417866 2023-08-25 1735 385 JD 'Gooey' Belleville IL USA na EM58dl 84 52 108
2417862 2023-08-25 1734 382 MW 'Jonny' Marion IL USA na EM57mu 25 175 109 123
2417863 2023-08-25 1734 382 SP 'Huskk' Springfield IL USA na EM59cs 25 136 85 31
2417857 2023-08-25 1733 375 LQ 'Licol' Springfield IL USA na EM59ev 156 97 33
2417851 2023-08-25 1732 365 SYZ Shelbyville IL USA na EM59nj 25 168 105 63
2417848 2023-08-25 1732 356 PI 'Tungg' Peoria IL USA na EN50eo 40 225 140 22
2417828 2023-08-25 1725 332 DN 'Julip' Danville IL USA na EN60fg 315 196 56
2417825 2023-08-25 1724 326 SU 'Snoop' Saint Louis MO USA na EM48op 25 17 11 237
2417827 2023-08-25 1724 329 AAA 'Abraham' Lincoln IL USA na EN50hd 25 191 118 33
2417822 2023-08-25 1721 293 UI Quincy IL USA na EM49iv 25 142 88 336
2417819 2023-08-25 1718 272 OLY 'Olney' Olney-Noble IL USA na EM58vr 25 210 130 89
2417816 2023-08-25 1716 257 FWC 'Wayne County' Fairfield IL USA na EM58tj 25 199 124 100
2417815 2023-08-25 1715 251 JZY Macomb IL USA na EN40rm 25 199 124 2
2417813 2023-08-25 1714 245 FS 'Rokky' Sioux Falls SD USA na EN13ol 100 738 459 317
2417812 2023-08-25 1713 240 CJ 'Calde' Springfield IL USA na EM59et 148 92 35
2417811 2023-08-25 1712 227 FZ 'Eaves' St. Louis MO USA na EM48rq 9 5 122
2404153 2023-06-24 0925 334 LH 'Egrow' Bloomington IL USA na EN50nn 253 157 35
2404152 2023-06-24 0923 332 QT Thunder Bay ON CAN na EN58gi 1000 1074 667 4
2404151 2023-06-24 0919 332 FIS 'Fish Hook' Key West FL USA na EL94cn 400 1781 1107 149
2404150 2023-06-24 0918 332 DN 'Julip' Danville IL USA na EN60fg 315 196 56
2404149 2023-06-24 0910 329 AAA 'Abraham' Lincoln IL USA na EN50hd 25 191 118 33
2404148 2023-06-24 0910 328 YTL Big Trout Lake ON CAN na EO53bt 1000 1678 1043 1
2404147 2023-06-24 0908 326 SU 'Snoop' Saint Louis MO USA na EM48op 25 17 11 237
2400491 2023-05-29 0845 338 RYN 'Ryan' Tucson AZ USA na DM42kd 400 1991 1237 254
2400493 2023-05-29 0837 400 ROB 'Robinson' Waco TX USA na EM11lm 991 616 217
2400489 2023-05-28 0818 326 MA 'Farly' Midland TX USA na DM81ux 400 1295 805 238
2400490 2023-05-27 0831 326 SU 'Snoop' Saint Louis MO USA na EM48op 25 17 11 237
2400488 2023-05-27 0826 227 FZ 'Eaves' St. Louis MO USA na EM48rq 9 5 122
2400492 2023-05-27 0818 365 AA 'Kenie' Fargo MN USA na EN17oa 100 1049 652 333
2397656 2023-05-19 0852 221 HM Hamilton (Carluke) ON CAN na EN93xc 25 1012 629 57
2397671 2023-05-19 0850 332 YFM La Grande 4 QC CAN na FO33dr 2000 2104 1307 32
2397673 2023-05-19 0849 338 JZ 'Newbn' Lawrence KS USA na EM28kv 25 390 242 274
2397688 2023-05-19 0843 397 ZHA Ancaster (Hamilton) ON CAN na EN93xe 14 1016 632 57
2397684 2023-05-19 0839 379 DL 'Pykla' Duluth MN USA na EN36tu 915 568 351
2397686 2023-05-19 0839 379 YPQ Peterborough ON CAN na FN04sf 25 1182 734 54
2397682 2023-05-19 0838 378 RJ Roberval QC CAN na FN38un 500 1828 1136 47
2397681 2023-05-19 0835 371 GW Jarpik Kuujjuarapik QC CAN na FO15cg 500 2073 1288 23
2397680 2023-05-19 0834 363 RNB 'Rainbow' Millville NJ USA na FM29kk 50 1338 832 81
2397679 2023-05-19 0833 362 SB Sudbury ON CAN na EN96mp 400 1181 734 38
2397677 2023-05-19 0831 351 YKQ Waskaganish QC CAN na FO01pl 500 1694 1052 29
2397678 2023-05-19 0831 353 PG Portage MB CAN na EN09vu 25 1375 854 336
2397676 2023-05-19 0830 347 PA Prince Albert SK CAN na DO73cf 25 1984 1233 329
2397675 2023-05-19 0829 346 YXL Sioux Lookout ON CAN na EO40bc 1000 1269 788 355
2397674 2023-05-19 0828 338 YPX Puvirnituq QC CAN na FP10ib 500 2549 1584 17
2397672 2023-05-19 0827 334 YER Fort Severn ON CAN na EO65ex 195 1931 1200 5
2397668 2023-05-19 0825 329 YEK Arviat NU CAN na EP21xc 500 2499 1553 355
2397666 2023-05-19 0822 326 FC Fredericton NB CAN na FN65qw 1600 2119 1317 60
2397665 2023-05-19 0816 284 QD The Pas MB CAN na DO93lx 500 1870 1162 338
2397664 2023-05-19 0815 275 R1 Thetford Mines QC CAN na FN46ib 25 1778 1105 56
2397663 2023-05-19 0814 269 UDE Delta MB CAN na EO00ud 50 1406 874 337
2397662 2023-05-19 0812 266 ZHM Hamilton (Binbrook) ON CAN na FN03cd 50 1033 642 58
2397661 2023-05-19 0811 263 YGK Kingston ON CAN na FN14qh 1000 1318 819 57
2397659 2023-05-19 0809 257 XE Saskatoon SK CAN na DO62oe 25 1948 1210 325
2397660 2023-05-19 0809 258 ZSJ Sandy Lake ON CAN na EO33hb 500 1608 999 353
2397658 2023-05-19 0806 250 FO Flin Flon MB CAN na DO94dq 1600 1960 1218 338
2397694 2023-05-19 0804 236 OW Ramsayville (Ottawa) ON CAN na FN25fi 60 1444 897 54
2397657 2023-05-19 0802 224 QM Moncton NB CAN na FN76rc 400 2280 1417 60
2397655 2023-05-19 0759 218 YUY Rouyn QC CAN na FN08me 500 1408 875 37
2397654 2023-05-19 0758 215 ZWW 'Boine' Muddywater (Winnipeg) MB CAN na EN19it 13 1340 833 338
2397653 2023-05-19 0757 212 SJ Saint John NB CAN na FN75cj 1000 2169 1348 62
2397652 2023-05-19 0751 207 YNE Norway House MB CAN na EO13bx 1000 1782 1107 344
2397651 2023-05-19 0749 201 ZWN 'Downs' Winnipeg (Snowhill) MB CAN na EN19ix 50 1357 843 339
2397693 2023-05-19 0748 200 YAQ Kasabonika ON CAN na EO53qm 50 1652 1026 4
2397670 2023-05-18 0653 332 QT Thunder Bay ON CAN na EN58gi 1000 1074 667 4
2397667 2023-05-18 0653 328 YTL Big Trout Lake ON CAN na EO53bt 1000 1678 1043 1
2397669 2023-05-18 0652 332 FIS 'Fish Hook' Key West FL USA na EL94cn 400 1781 1107 149
2397687 2023-05-18 0649 382 YPL Pickle Lake ON CAN na EO41vk 500 1413 878 1
2397691 2023-05-18 0648 409 YTA Pembroke ON CAN na FN15jt 25 1353 841 50
2397689 2023-05-18 0647 400 ROB 'Robinson' Waco TX USA na EM11lm 991 616 217
2397683 2023-05-18 0643 379 BRA 'Broad River' Asheville NC USA na EM85sg 100 820 510 115
2397685 2023-05-18 0643 379 RUE Russellville AR USA na EM35kg 25 444 276 210
2397690 2023-05-18 0639 401 YPO Peawanuck ON CAN na EO74gx 125 1848 1148 10
2393549 2023-04-24 0500 255 SW 'GABEH' Stillwater OK USA na EM16kf 50 637 396 246
2393508 2023-04-23 1047 251 AM 'Pande' Amarillo TX USA na DM95cd 400 1068 664 251
2393509 2023-04-23 0505 253 OC 'Nados' Nacogdoches TX USA na EM21pl 25 887 551 205
2393510 2023-04-23 0500 420 FQ 'Montz' Fairmont MN USA na EN23tp 25 630 392 331
2393289 2023-04-22 0734 245 HU 'Yinno' Terre Haute IN USA na EM69hj 290 180 74
2393302 2023-04-22 0720 426 UV 'Tunng' Oxford MS USA na EM54ej 25 490 304 169
2393301 2023-04-22 0718 423 PCW Port Clinton OH USA na EN81nm 25 728 452 62
2393300 2023-04-22 0715 420 TU 'Veron' Tupelo MS USA na EM54oe 25 531 330 161